sensor_id;sensor_type;location;lat;lon;timestamp;P1;durP1;ratioP1;P2;durP2;ratioP2
12290;SDS011;6208;48.956;9.076;2022-12-20T00:02:15;15.13;;;12.50;;
12290;SDS011;6208;48.956;9.076;2022-12-20T00:05:00;16.17;;;13.07;;
12290;SDS011;6208;48.956;9.076;2022-12-20T00:07:44;16.83;;;12.50;;
12290;SDS011;6208;48.956;9.076;2022-12-20T00:10:28;13.47;;;11.13;;
12290;SDS011;6208;48.956;9.076;2022-12-20T00:13:12;13.30;;;11.30;;
12290;SDS011;6208;48.956;9.076;2022-12-20T00:16:13;13.93;;;11.80;;
12290;SDS011;6208;48.956;9.076;2022-12-20T00:19:02;14.53;;;11.47;;
12290;SDS011;6208;48.956;9.076;2022-12-20T00:21:48;13.60;;;10.83;;
12290;SDS011;6208;48.956;9.076;2022-12-20T00:24:32;13.70;;;11.27;;
12290;SDS011;6208;48.956;9.076;2022-12-20T00:27:17;14.07;;;11.17;;
12290;SDS011;6208;48.956;9.076;2022-12-20T00:30:00;14.10;;;12.13;;
12290;SDS011;6208;48.956;9.076;2022-12-20T00:32:45;12.30;;;10.90;;
12290;SDS011;6208;48.956;9.076;2022-12-20T00:35:30;13.77;;;11.60;;
12290;SDS011;6208;48.956;9.076;2022-12-20T00:38:14;15.83;;;11.07;;
12290;SDS011;6208;48.956;9.076;2022-12-20T00:41:08;13.07;;;10.83;;
12290;SDS011;6208;48.956;9.076;2022-12-20T00:43:54;14.50;;;10.67;;
12290;SDS011;6208;48.956;9.076;2022-12-20T00:46:38;13.93;;;11.13;;
12290;SDS011;6208;48.956;9.076;2022-12-20T00:49:22;13.03;;;10.67;;
12290;SDS011;6208;48.956;9.076;2022-12-20T00:52:06;14.13;;;11.33;;
12290;SDS011;6208;48.956;9.076;2022-12-20T00:54:51;14.03;;;11.13;;
12290;SDS011;6208;48.956;9.076;2022-12-20T00:57:35;13.17;;;10.90;;
12290;SDS011;6208;48.956;9.076;2022-12-20T01:00:19;14.87;;;11.43;;
12290;SDS011;6208;48.956;9.076;2022-12-20T01:03:04;12.47;;;10.73;;
12290;SDS011;6208;48.956;9.076;2022-12-20T01:05:52;13.27;;;10.87;;
12290;SDS011;6208;48.956;9.076;2022-12-20T01:08:38;14.37;;;10.17;;
12290;SDS011;6208;48.956;9.076;2022-12-20T01:11:27;12.90;;;11.47;;
12290;SDS011;6208;48.956;9.076;2022-12-20T01:14:13;13.30;;;11.10;;
12290;SDS011;6208;48.956;9.076;2022-12-20T01:16:58;13.80;;;11.00;;
12290;SDS011;6208;48.956;9.076;2022-12-20T01:19:42;13.57;;;10.67;;
12290;SDS011;6208;48.956;9.076;2022-12-20T01:22:27;14.13;;;11.23;;
12290;SDS011;6208;48.956;9.076;2022-12-20T01:25:11;13.57;;;11.37;;
12290;SDS011;6208;48.956;9.076;2022-12-20T01:27:55;13.43;;;10.77;;
12290;SDS011;6208;48.956;9.076;2022-12-20T01:30:39;12.70;;;10.70;;
12290;SDS011;6208;48.956;9.076;2022-12-20T01:33:24;13.57;;;11.13;;
12290;SDS011;6208;48.956;9.076;2022-12-20T01:36:13;12.93;;;10.33;;
12290;SDS011;6208;48.956;9.076;2022-12-20T01:39:03;13.57;;;10.80;;
12290;SDS011;6208;48.956;9.076;2022-12-20T01:41:50;14.93;;;10.17;;
12290;SDS011;6208;48.956;9.076;2022-12-20T01:47:18;13.53;;;9.70;;
12290;SDS011;6208;48.956;9.076;2022-12-20T01:50:04;12.90;;;10.23;;
12290;SDS011;6208;48.956;9.076;2022-12-20T01:52:50;12.40;;;10.73;;
12290;SDS011;6208;48.956;9.076;2022-12-20T01:55:35;12.20;;;10.47;;
12290;SDS011;6208;48.956;9.076;2022-12-20T01:58:20;13.33;;;10.57;;
12290;SDS011;6208;48.956;9.076;2022-12-20T02:01:05;14.17;;;10.03;;
12290;SDS011;6208;48.956;9.076;2022-12-20T02:03:50;13.30;;;11.43;;
12290;SDS011;6208;48.956;9.076;2022-12-20T02:06:36;12.23;;;10.10;;
12290;SDS011;6208;48.956;9.076;2022-12-20T02:09:20;13.17;;;10.37;;
12290;SDS011;6208;48.956;9.076;2022-12-20T02:14:57;13.57;;;10.17;;
12290;SDS011;6208;48.956;9.076;2022-12-20T02:24:43;12.50;;;10.63;;
12290;SDS011;6208;48.956;9.076;2022-12-20T02:30:54;15.07;;;10.73;;
12290;SDS011;6208;48.956;9.076;2022-12-20T02:33:41;14.10;;;10.70;;
12290;SDS011;6208;48.956;9.076;2022-12-20T02:36:29;14.17;;;10.63;;
12290;SDS011;6208;48.956;9.076;2022-12-20T02:39:15;14.83;;;11.07;;
12290;SDS011;6208;48.956;9.076;2022-12-20T02:42:09;13.37;;;10.93;;
12290;SDS011;6208;48.956;9.076;2022-12-20T02:44:57;13.00;;;10.67;;
12290;SDS011;6208;48.956;9.076;2022-12-20T02:47:59;11.90;;;9.73;;
12290;SDS011;6208;48.956;9.076;2022-12-20T02:50:45;14.10;;;10.70;;
12290;SDS011;6208;48.956;9.076;2022-12-20T02:53:34;11.10;;;9.73;;
12290;SDS011;6208;48.956;9.076;2022-12-20T02:56:31;14.30;;;10.60;;
12290;SDS011;6208;48.956;9.076;2022-12-20T02:59:20;13.73;;;9.90;;
12290;SDS011;6208;48.956;9.076;2022-12-20T03:02:27;11.23;;;10.03;;
12290;SDS011;6208;48.956;9.076;2022-12-20T03:05:33;12.63;;;9.87;;
12290;SDS011;6208;48.956;9.076;2022-12-20T03:08:21;11.53;;;10.33;;
12290;SDS011;6208;48.956;9.076;2022-12-20T03:11:06;11.03;;;9.83;;
12290;SDS011;6208;48.956;9.076;2022-12-20T03:13:50;12.70;;;10.80;;
12290;SDS011;6208;48.956;9.076;2022-12-20T03:16:34;12.03;;;9.70;;
12290;SDS011;6208;48.956;9.076;2022-12-20T03:19:18;11.70;;;10.07;;
12290;SDS011;6208;48.956;9.076;2022-12-20T03:22:02;13.70;;;9.97;;
12290;SDS011;6208;48.956;9.076;2022-12-20T03:24:47;11.60;;;10.10;;
12290;SDS011;6208;48.956;9.076;2022-12-20T03:27:31;12.10;;;10.27;;
12290;SDS011;6208;48.956;9.076;2022-12-20T03:30:16;17.40;;;10.90;;
12290;SDS011;6208;48.956;9.076;2022-12-20T03:33:00;15.27;;;11.03;;
12290;SDS011;6208;48.956;9.076;2022-12-20T03:35:45;13.27;;;10.07;;
12290;SDS011;6208;48.956;9.076;2022-12-20T03:38:30;14.27;;;11.27;;
12290;SDS011;6208;48.956;9.076;2022-12-20T03:41:14;14.60;;;11.00;;
12290;SDS011;6208;48.956;9.076;2022-12-20T03:43:58;12.33;;;10.87;;
12290;SDS011;6208;48.956;9.076;2022-12-20T03:46:42;13.93;;;10.97;;
12290;SDS011;6208;48.956;9.076;2022-12-20T03:49:26;13.37;;;10.53;;
12290;SDS011;6208;48.956;9.076;2022-12-20T03:52:11;13.67;;;10.67;;
12290;SDS011;6208;48.956;9.076;2022-12-20T03:54:56;11.13;;;10.00;;
12290;SDS011;6208;48.956;9.076;2022-12-20T03:57:40;15.23;;;11.10;;
12290;SDS011;6208;48.956;9.076;2022-12-20T04:00:25;12.63;;;10.77;;
12290;SDS011;6208;48.956;9.076;2022-12-20T04:03:09;11.90;;;10.40;;
12290;SDS011;6208;48.956;9.076;2022-12-20T04:05:53;11.93;;;9.97;;
12290;SDS011;6208;48.956;9.076;2022-12-20T04:08:37;12.53;;;10.67;;
12290;SDS011;6208;48.956;9.076;2022-12-20T04:11:21;16.60;;;10.83;;
12290;SDS011;6208;48.956;9.076;2022-12-20T04:14:05;15.10;;;11.20;;
12290;SDS011;6208;48.956;9.076;2022-12-20T04:16:50;12.67;;;10.63;;
12290;SDS011;6208;48.956;9.076;2022-12-20T04:19:34;13.33;;;11.57;;
12290;SDS011;6208;48.956;9.076;2022-12-20T04:22:18;14.37;;;10.83;;
12290;SDS011;6208;48.956;9.076;2022-12-20T04:25:02;13.57;;;10.27;;
12290;SDS011;6208;48.956;9.076;2022-12-20T04:27:47;13.10;;;11.03;;
12290;SDS011;6208;48.956;9.076;2022-12-20T04:30:31;12.63;;;11.10;;
12290;SDS011;6208;48.956;9.076;2022-12-20T04:33:15;12.60;;;10.43;;
12290;SDS011;6208;48.956;9.076;2022-12-20T04:35:59;13.03;;;9.90;;
12290;SDS011;6208;48.956;9.076;2022-12-20T04:38:43;14.37;;;11.07;;
12290;SDS011;6208;48.956;9.076;2022-12-20T04:41:27;12.37;;;10.47;;
12290;SDS011;6208;48.956;9.076;2022-12-20T04:44:11;14.87;;;10.60;;
12290;SDS011;6208;48.956;9.076;2022-12-20T04:46:55;14.37;;;10.17;;
12290;SDS011;6208;48.956;9.076;2022-12-20T04:49:39;15.73;;;11.33;;
12290;SDS011;6208;48.956;9.076;2022-12-20T04:52:23;11.97;;;10.57;;
12290;SDS011;6208;48.956;9.076;2022-12-20T04:55:26;12.03;;;10.73;;
12290;SDS011;6208;48.956;9.076;2022-12-20T04:58:10;14.50;;;10.23;;
12290;SDS011;6208;48.956;9.076;2022-12-20T05:00:54;13.07;;;9.97;;
12290;SDS011;6208;48.956;9.076;2022-12-20T05:03:39;11.37;;;10.17;;
12290;SDS011;6208;48.956;9.076;2022-12-20T05:06:23;11.73;;;9.80;;
12290;SDS011;6208;48.956;9.076;2022-12-20T05:09:07;11.40;;;10.20;;
12290;SDS011;6208;48.956;9.076;2022-12-20T05:11:51;12.60;;;10.30;;
12290;SDS011;6208;48.956;9.076;2022-12-20T05:14:36;11.27;;;10.10;;
12290;SDS011;6208;48.956;9.076;2022-12-20T05:17:20;13.30;;;11.07;;
12290;SDS011;6208;48.956;9.076;2022-12-20T05:20:04;12.03;;;10.70;;
12290;SDS011;6208;48.956;9.076;2022-12-20T05:22:49;12.97;;;10.67;;
12290;SDS011;6208;48.956;9.076;2022-12-20T05:25:53;12.33;;;9.83;;
12290;SDS011;6208;48.956;9.076;2022-12-20T05:28:56;11.70;;;10.43;;
12290;SDS011;6208;48.956;9.076;2022-12-20T05:31:40;11.07;;;9.67;;
12290;SDS011;6208;48.956;9.076;2022-12-20T05:34:24;11.63;;;10.43;;
12290;SDS011;6208;48.956;9.076;2022-12-20T05:37:08;11.70;;;10.10;;
12290;SDS011;6208;48.956;9.076;2022-12-20T05:39:52;13.03;;;9.83;;
12290;SDS011;6208;48.956;9.076;2022-12-20T05:42:36;12.53;;;10.23;;
12290;SDS011;6208;48.956;9.076;2022-12-20T05:45:20;11.27;;;10.03;;
12290;SDS011;6208;48.956;9.076;2022-12-20T05:48:04;12.10;;;10.10;;
12290;SDS011;6208;48.956;9.076;2022-12-20T05:50:48;13.00;;;9.73;;
12290;SDS011;6208;48.956;9.076;2022-12-20T05:53:32;11.73;;;9.67;;
12290;SDS011;6208;48.956;9.076;2022-12-20T05:56:17;14.07;;;11.00;;
12290;SDS011;6208;48.956;9.076;2022-12-20T05:59:01;13.67;;;12.10;;
12290;SDS011;6208;48.956;9.076;2022-12-20T06:01:46;14.43;;;10.93;;
12290;SDS011;6208;48.956;9.076;2022-12-20T06:04:30;13.17;;;10.00;;
12290;SDS011;6208;48.956;9.076;2022-12-20T06:07:16;11.10;;;9.70;;
12290;SDS011;6208;48.956;9.076;2022-12-20T06:10:02;12.80;;;10.00;;
12290;SDS011;6208;48.956;9.076;2022-12-20T06:12:46;10.97;;;9.13;;
12290;SDS011;6208;48.956;9.076;2022-12-20T06:15:31;13.03;;;10.00;;
12290;SDS011;6208;48.956;9.076;2022-12-20T06:18:15;12.20;;;9.77;;
12290;SDS011;6208;48.956;9.076;2022-12-20T06:20:59;11.63;;;9.77;;
12290;SDS011;6208;48.956;9.076;2022-12-20T06:23:43;10.77;;;9.67;;
12290;SDS011;6208;48.956;9.076;2022-12-20T06:26:26;13.97;;;10.97;;
12290;SDS011;6208;48.956;9.076;2022-12-20T06:29:18;12.33;;;10.30;;
12290;SDS011;6208;48.956;9.076;2022-12-20T06:32:03;12.33;;;9.47;;
12290;SDS011;6208;48.956;9.076;2022-12-20T06:34:49;13.23;;;10.90;;
12290;SDS011;6208;48.956;9.076;2022-12-20T06:37:33;11.03;;;9.90;;
12290;SDS011;6208;48.956;9.076;2022-12-20T06:40:19;15.10;;;10.63;;
12290;SDS011;6208;48.956;9.076;2022-12-20T06:43:03;11.33;;;9.43;;
12290;SDS011;6208;48.956;9.076;2022-12-20T06:45:47;13.20;;;9.40;;
12290;SDS011;6208;48.956;9.076;2022-12-20T06:48:31;10.67;;;9.17;;
12290;SDS011;6208;48.956;9.076;2022-12-20T06:51:16;12.27;;;9.77;;
12290;SDS011;6208;48.956;9.076;2022-12-20T06:54:00;14.73;;;12.13;;
12290;SDS011;6208;48.956;9.076;2022-12-20T06:56:44;14.13;;;11.87;;
12290;SDS011;6208;48.956;9.076;2022-12-20T06:59:28;11.13;;;9.43;;
12290;SDS011;6208;48.956;9.076;2022-12-20T07:02:12;10.70;;;9.60;;
12290;SDS011;6208;48.956;9.076;2022-12-20T07:04:56;11.40;;;9.40;;
12290;SDS011;6208;48.956;9.076;2022-12-20T07:07:41;12.63;;;10.03;;
12290;SDS011;6208;48.956;9.076;2022-12-20T07:10:25;10.90;;;9.37;;
12290;SDS011;6208;48.956;9.076;2022-12-20T07:13:09;16.30;;;10.20;;
12290;SDS011;6208;48.956;9.076;2022-12-20T07:15:57;11.63;;;9.50;;
12290;SDS011;6208;48.956;9.076;2022-12-20T07:18:43;13.07;;;9.40;;
12290;SDS011;6208;48.956;9.076;2022-12-20T07:21:28;11.73;;;9.17;;
12290;SDS011;6208;48.956;9.076;2022-12-20T07:24:12;10.00;;;8.87;;
12290;SDS011;6208;48.956;9.076;2022-12-20T07:26:56;10.27;;;9.07;;
12290;SDS011;6208;48.956;9.076;2022-12-20T07:29:40;11.33;;;9.30;;
12290;SDS011;6208;48.956;9.076;2022-12-20T07:32:25;12.00;;;9.93;;
12290;SDS011;6208;48.956;9.076;2022-12-20T07:35:10;14.73;;;10.67;;
12290;SDS011;6208;48.956;9.076;2022-12-20T07:37:54;14.03;;;11.10;;
12290;SDS011;6208;48.956;9.076;2022-12-20T07:40:39;13.67;;;9.93;;
12290;SDS011;6208;48.956;9.076;2022-12-20T07:43:25;12.63;;;10.07;;
12290;SDS011;6208;48.956;9.076;2022-12-20T07:46:09;13.07;;;9.80;;
12290;SDS011;6208;48.956;9.076;2022-12-20T07:48:56;15.60;;;10.27;;
12290;SDS011;6208;48.956;9.076;2022-12-20T07:51:41;12.37;;;10.10;;
12290;SDS011;6208;48.956;9.076;2022-12-20T07:54:40;12.13;;;9.30;;
12290;SDS011;6208;48.956;9.076;2022-12-20T07:57:48;14.63;;;9.13;;
12290;SDS011;6208;48.956;9.076;2022-12-20T08:00:37;13.20;;;10.23;;
12290;SDS011;6208;48.956;9.076;2022-12-20T08:03:29;10.23;;;9.20;;
12290;SDS011;6208;48.956;9.076;2022-12-20T08:06:19;14.00;;;9.43;;
12290;SDS011;6208;48.956;9.076;2022-12-20T08:09:04;12.63;;;9.73;;
12290;SDS011;6208;48.956;9.076;2022-12-20T08:11:49;10.77;;;8.80;;
12290;SDS011;6208;48.956;9.076;2022-12-20T08:14:35;11.47;;;8.77;;
12290;SDS011;6208;48.956;9.076;2022-12-20T08:17:20;10.47;;;8.83;;
12290;SDS011;6208;48.956;9.076;2022-12-20T08:20:05;9.50;;;8.40;;
12290;SDS011;6208;48.956;9.076;2022-12-20T08:22:51;13.97;;;9.70;;
12290;SDS011;6208;48.956;9.076;2022-12-20T08:25:35;10.53;;;9.33;;
12290;SDS011;6208;48.956;9.076;2022-12-20T08:28:19;14.07;;;10.80;;
12290;SDS011;6208;48.956;9.076;2022-12-20T08:31:04;13.43;;;10.30;;
12290;SDS011;6208;48.956;9.076;2022-12-20T08:33:52;20.40;;;13.93;;
12290;SDS011;6208;48.956;9.076;2022-12-20T08:36:37;11.67;;;9.97;;
12290;SDS011;6208;48.956;9.076;2022-12-20T08:39:21;14.60;;;9.17;;
12290;SDS011;6208;48.956;9.076;2022-12-20T08:42:05;13.53;;;9.43;;
12290;SDS011;6208;48.956;9.076;2022-12-20T08:44:49;9.43;;;8.43;;
12290;SDS011;6208;48.956;9.076;2022-12-20T08:47:33;11.03;;;8.20;;
12290;SDS011;6208;48.956;9.076;2022-12-20T08:50:17;10.13;;;7.73;;
12290;SDS011;6208;48.956;9.076;2022-12-20T08:53:02;12.20;;;8.80;;
12290;SDS011;6208;48.956;9.076;2022-12-20T08:55:46;9.57;;;7.93;;
12290;SDS011;6208;48.956;9.076;2022-12-20T08:58:30;10.53;;;8.40;;
12290;SDS011;6208;48.956;9.076;2022-12-20T09:01:15;9.33;;;8.17;;
12290;SDS011;6208;48.956;9.076;2022-12-20T09:04:00;11.30;;;8.40;;
12290;SDS011;6208;48.956;9.076;2022-12-20T09:06:44;11.13;;;8.33;;
12290;SDS011;6208;48.956;9.076;2022-12-20T09:09:29;9.67;;;8.40;;
12290;SDS011;6208;48.956;9.076;2022-12-20T09:12:14;9.37;;;8.33;;
12290;SDS011;6208;48.956;9.076;2022-12-20T09:14:58;12.93;;;11.30;;
12290;SDS011;6208;48.956;9.076;2022-12-20T09:17:42;10.57;;;9.03;;
12290;SDS011;6208;48.956;9.076;2022-12-20T09:20:27;10.43;;;8.43;;
12290;SDS011;6208;48.956;9.076;2022-12-20T09:23:12;11.80;;;8.40;;
12290;SDS011;6208;48.956;9.076;2022-12-20T09:26:00;11.90;;;8.13;;
12290;SDS011;6208;48.956;9.076;2022-12-20T09:28:49;9.13;;;7.97;;
12290;SDS011;6208;48.956;9.076;2022-12-20T09:31:34;10.27;;;8.50;;
12290;SDS011;6208;48.956;9.076;2022-12-20T09:34:19;14.87;;;8.70;;
12290;SDS011;6208;48.956;9.076;2022-12-20T09:37:03;11.37;;;8.87;;
12290;SDS011;6208;48.956;9.076;2022-12-20T09:39:48;10.13;;;8.43;;
12290;SDS011;6208;48.956;9.076;2022-12-20T09:42:34;11.00;;;8.60;;
12290;SDS011;6208;48.956;9.076;2022-12-20T09:45:24;10.83;;;8.03;;
12290;SDS011;6208;48.956;9.076;2022-12-20T09:48:18;14.10;;;8.10;;
12290;SDS011;6208;48.956;9.076;2022-12-20T10:00:00;20.27;;;14.77;;
12290;SDS011;6208;48.956;9.076;2022-12-20T10:02:45;22.23;;;15.97;;
12290;SDS011;6208;48.956;9.076;2022-12-20T10:08:49;9.47;;;8.27;;
12290;SDS011;6208;48.956;9.076;2022-12-20T10:11:42;10.27;;;7.57;;
12290;SDS011;6208;48.956;9.076;2022-12-20T10:24:03;8.67;;;7.70;;
12290;SDS011;6208;48.956;9.076;2022-12-20T10:27:15;8.03;;;7.17;;
12290;SDS011;6208;48.956;9.076;2022-12-20T10:30:04;7.67;;;6.90;;
12290;SDS011;6208;48.956;9.076;2022-12-20T10:32:58;7.20;;;6.50;;
12290;SDS011;6208;48.956;9.076;2022-12-20T10:35:42;8.83;;;7.73;;
12290;SDS011;6208;48.956;9.076;2022-12-20T10:41:47;7.07;;;6.47;;
12290;SDS011;6208;48.956;9.076;2022-12-20T10:44:32;8.77;;;7.57;;
12290;SDS011;6208;48.956;9.076;2022-12-20T10:47:50;6.83;;;6.13;;
12290;SDS011;6208;48.956;9.076;2022-12-20T10:50:28;7.97;;;7.17;;
12290;SDS011;6208;48.956;9.076;2022-12-20T10:53:18;12.43;;;8.13;;
12290;SDS011;6208;48.956;9.076;2022-12-20T10:56:23;10.37;;;8.67;;
12290;SDS011;6208;48.956;9.076;2022-12-20T11:02:00;9.97;;;7.93;;
12290;SDS011;6208;48.956;9.076;2022-12-20T11:05:21;10.53;;;7.37;;
12290;SDS011;6208;48.956;9.076;2022-12-20T11:08:14;9.90;;;7.90;;
12290;SDS011;6208;48.956;9.076;2022-12-20T11:11:10;9.37;;;7.90;;
12290;SDS011;6208;48.956;9.076;2022-12-20T11:14:14;8.80;;;7.93;;
12290;SDS011;6208;48.956;9.076;2022-12-20T11:17:13;12.23;;;7.67;;
12290;SDS011;6208;48.956;9.076;2022-12-20T11:32:37;16.97;;;9.17;;
12290;SDS011;6208;48.956;9.076;2022-12-20T11:38:48;11.67;;;8.33;;
12290;SDS011;6208;48.956;9.076;2022-12-20T11:41:43;12.03;;;8.67;;
12290;SDS011;6208;48.956;9.076;2022-12-20T11:47:52;13.60;;;9.80;;
12290;SDS011;6208;48.956;9.076;2022-12-20T11:54:01;15.03;;;10.77;;
12290;SDS011;6208;48.956;9.076;2022-12-20T11:56:53;10.20;;;8.20;;
12290;SDS011;6208;48.956;9.076;2022-12-20T12:02:50;11.40;;;7.93;;
12290;SDS011;6208;48.956;9.076;2022-12-20T12:05:43;10.97;;;7.87;;
12290;SDS011;6208;48.956;9.076;2022-12-20T12:08:37;12.83;;;9.57;;
12290;SDS011;6208;48.956;9.076;2022-12-20T12:11:30;11.37;;;7.73;;
12290;SDS011;6208;48.956;9.076;2022-12-20T12:14:26;9.87;;;7.80;;
12290;SDS011;6208;48.956;9.076;2022-12-20T12:17:37;9.10;;;7.67;;
12290;SDS011;6208;48.956;9.076;2022-12-20T12:29:03;11.67;;;9.50;;
12290;SDS011;6208;48.956;9.076;2022-12-20T12:34:52;10.03;;;8.67;;
12290;SDS011;6208;48.956;9.076;2022-12-20T12:40:40;9.73;;;8.13;;
12290;SDS011;6208;48.956;9.076;2022-12-20T12:43:44;8.60;;;7.00;;
12290;SDS011;6208;48.956;9.076;2022-12-20T12:46:46;8.20;;;7.50;;
12290;SDS011;6208;48.956;9.076;2022-12-20T12:49:36;10.37;;;6.80;;
12290;SDS011;6208;48.956;9.076;2022-12-20T12:55:47;9.60;;;8.30;;
12290;SDS011;6208;48.956;9.076;2022-12-20T12:58:34;9.33;;;7.27;;
12290;SDS011;6208;48.956;9.076;2022-12-20T13:01:45;8.57;;;6.50;;
12290;SDS011;6208;48.956;9.076;2022-12-20T13:07:41;8.23;;;6.90;;
12290;SDS011;6208;48.956;9.076;2022-12-20T13:13:20;9.53;;;6.83;;
12290;SDS011;6208;48.956;9.076;2022-12-20T13:16:08;7.67;;;6.70;;
12290;SDS011;6208;48.956;9.076;2022-12-20T13:18:59;9.73;;;7.17;;
12290;SDS011;6208;48.956;9.076;2022-12-20T13:24:59;8.03;;;7.27;;
12290;SDS011;6208;48.956;9.076;2022-12-20T13:27:46;9.83;;;7.00;;
12290;SDS011;6208;48.956;9.076;2022-12-20T13:30:30;9.67;;;6.57;;
12290;SDS011;6208;48.956;9.076;2022-12-20T13:39:40;7.47;;;6.77;;
12290;SDS011;6208;48.956;9.076;2022-12-20T13:42:36;8.23;;;7.23;;
12290;SDS011;6208;48.956;9.076;2022-12-20T13:45:23;8.60;;;6.87;;
12290;SDS011;6208;48.956;9.076;2022-12-20T13:48:09;7.63;;;6.87;;
12290;SDS011;6208;48.956;9.076;2022-12-20T13:50:58;9.73;;;7.43;;
12290;SDS011;6208;48.956;9.076;2022-12-20T13:54:02;9.90;;;6.50;;
12290;SDS011;6208;48.956;9.076;2022-12-20T13:56:49;7.73;;;6.93;;
12290;SDS011;6208;48.956;9.076;2022-12-20T13:59:34;8.47;;;7.10;;
12290;SDS011;6208;48.956;9.076;2022-12-20T14:02:20;9.43;;;7.03;;
12290;SDS011;6208;48.956;9.076;2022-12-20T14:08:21;12.07;;;7.63;;
12290;SDS011;6208;48.956;9.076;2022-12-20T14:11:10;7.47;;;6.77;;
12290;SDS011;6208;48.956;9.076;2022-12-20T14:13:58;9.07;;;6.80;;
12290;SDS011;6208;48.956;9.076;2022-12-20T14:16:43;10.27;;;6.90;;
12290;SDS011;6208;48.956;9.076;2022-12-20T14:19:27;8.40;;;6.67;;
12290;SDS011;6208;48.956;9.076;2022-12-20T14:22:11;11.90;;;8.30;;
12290;SDS011;6208;48.956;9.076;2022-12-20T14:24:57;10.90;;;7.03;;
12290;SDS011;6208;48.956;9.076;2022-12-20T14:27:41;7.83;;;7.07;;
12290;SDS011;6208;48.956;9.076;2022-12-20T14:30:28;8.37;;;6.80;;
12290;SDS011;6208;48.956;9.076;2022-12-20T14:36:22;7.43;;;6.57;;
12290;SDS011;6208;48.956;9.076;2022-12-20T14:42:16;7.63;;;6.17;;
12290;SDS011;6208;48.956;9.076;2022-12-20T14:45:04;8.13;;;6.70;;
12290;SDS011;6208;48.956;9.076;2022-12-20T14:48:05;7.80;;;6.20;;
12290;SDS011;6208;48.956;9.076;2022-12-20T14:50:58;8.80;;;6.80;;
12290;SDS011;6208;48.956;9.076;2022-12-20T14:53:47;9.13;;;6.63;;
12290;SDS011;6208;48.956;9.076;2022-12-20T14:56:34;8.47;;;6.53;;
12290;SDS011;6208;48.956;9.076;2022-12-20T14:59:36;7.47;;;5.97;;
12290;SDS011;6208;48.956;9.076;2022-12-20T15:08:24;8.30;;;6.70;;
12290;SDS011;6208;48.956;9.076;2022-12-20T15:11:17;7.23;;;6.50;;
12290;SDS011;6208;48.956;9.076;2022-12-20T15:17:17;8.93;;;6.53;;
12290;SDS011;6208;48.956;9.076;2022-12-20T15:20:01;7.97;;;6.87;;
12290;SDS011;6208;48.956;9.076;2022-12-20T15:22:46;9.53;;;6.90;;
12290;SDS011;6208;48.956;9.076;2022-12-20T15:25:31;11.40;;;7.30;;
12290;SDS011;6208;48.956;9.076;2022-12-20T15:28:19;9.17;;;7.20;;
12290;SDS011;6208;48.956;9.076;2022-12-20T15:31:05;10.53;;;7.30;;
12290;SDS011;6208;48.956;9.076;2022-12-20T15:33:53;9.70;;;7.80;;
12290;SDS011;6208;48.956;9.076;2022-12-20T15:36:41;9.80;;;7.53;;
12290;SDS011;6208;48.956;9.076;2022-12-20T15:39:25;14.67;;;8.43;;
12290;SDS011;6208;48.956;9.076;2022-12-20T15:42:12;11.57;;;8.33;;
12290;SDS011;6208;48.956;9.076;2022-12-20T15:44:59;15.00;;;9.77;;
12290;SDS011;6208;48.956;9.076;2022-12-20T15:47:44;14.07;;;9.80;;
12290;SDS011;6208;48.956;9.076;2022-12-20T15:50:28;12.43;;;8.50;;
12290;SDS011;6208;48.956;9.076;2022-12-20T15:53:13;9.33;;;8.17;;
12290;SDS011;6208;48.956;9.076;2022-12-20T15:55:59;7.97;;;7.17;;
12290;SDS011;6208;48.956;9.076;2022-12-20T15:58:44;7.70;;;6.40;;
12290;SDS011;6208;48.956;9.076;2022-12-20T16:01:32;8.90;;;7.30;;
12290;SDS011;6208;48.956;9.076;2022-12-20T16:04:19;9.73;;;5.93;;
12290;SDS011;6208;48.956;9.076;2022-12-20T16:07:04;14.17;;;7.80;;
12290;SDS011;6208;48.956;9.076;2022-12-20T16:09:51;6.47;;;5.77;;
12290;SDS011;6208;48.956;9.076;2022-12-20T16:12:36;5.93;;;5.37;;
12290;SDS011;6208;48.956;9.076;2022-12-20T16:15:21;6.80;;;6.10;;
12290;SDS011;6208;48.956;9.076;2022-12-20T16:18:06;7.00;;;6.30;;
12290;SDS011;6208;48.956;9.076;2022-12-20T16:20:51;6.20;;;5.60;;
12290;SDS011;6208;48.956;9.076;2022-12-20T16:23:35;8.00;;;6.07;;
12290;SDS011;6208;48.956;9.076;2022-12-20T16:26:20;7.57;;;6.73;;
12290;SDS011;6208;48.956;9.076;2022-12-20T16:29:05;7.30;;;6.57;;
12290;SDS011;6208;48.956;9.076;2022-12-20T16:31:50;7.70;;;6.93;;
12290;SDS011;6208;48.956;9.076;2022-12-20T16:34:35;9.83;;;6.70;;
12290;SDS011;6208;48.956;9.076;2022-12-20T16:37:19;7.93;;;6.30;;
12290;SDS011;6208;48.956;9.076;2022-12-20T16:40:03;11.83;;;7.73;;
12290;SDS011;6208;48.956;9.076;2022-12-20T16:42:48;7.40;;;6.72;;
12290;SDS011;6208;48.956;9.076;2022-12-20T16:45:32;9.27;;;7.50;;
12290;SDS011;6208;48.956;9.076;2022-12-20T16:48:17;7.63;;;6.10;;
12290;SDS011;6208;48.956;9.076;2022-12-20T16:51:01;7.87;;;6.27;;
12290;SDS011;6208;48.956;9.076;2022-12-20T16:53:45;10.03;;;6.83;;
12290;SDS011;6208;48.956;9.076;2022-12-20T16:56:29;9.20;;;7.07;;
12290;SDS011;6208;48.956;9.076;2022-12-20T16:59:14;7.57;;;6.70;;
12290;SDS011;6208;48.956;9.076;2022-12-20T17:01:58;7.90;;;7.10;;
12290;SDS011;6208;48.956;9.076;2022-12-20T17:04:44;10.30;;;7.53;;
12290;SDS011;6208;48.956;9.076;2022-12-20T17:07:28;11.07;;;7.30;;
12290;SDS011;6208;48.956;9.076;2022-12-20T17:10:12;7.67;;;6.90;;
12290;SDS011;6208;48.956;9.076;2022-12-20T17:12:56;8.40;;;6.30;;
12290;SDS011;6208;48.956;9.076;2022-12-20T17:15:41;8.70;;;6.37;;
12290;SDS011;6208;48.956;9.076;2022-12-20T17:18:27;8.03;;;6.50;;
12290;SDS011;6208;48.956;9.076;2022-12-20T17:21:22;10.67;;;6.80;;
12290;SDS011;6208;48.956;9.076;2022-12-20T17:24:24;8.47;;;6.17;;
12290;SDS011;6208;48.956;9.076;2022-12-20T17:27:09;7.20;;;6.30;;
12290;SDS011;6208;48.956;9.076;2022-12-20T17:29:53;7.43;;;6.40;;
12290;SDS011;6208;48.956;9.076;2022-12-20T17:32:37;7.53;;;6.70;;
12290;SDS011;6208;48.956;9.076;2022-12-20T17:35:23;7.37;;;6.67;;
12290;SDS011;6208;48.956;9.076;2022-12-20T17:38:10;10.43;;;7.83;;
12290;SDS011;6208;48.956;9.076;2022-12-20T17:40:55;9.20;;;7.30;;
12290;SDS011;6208;48.956;9.076;2022-12-20T17:43:39;9.30;;;7.63;;
12290;SDS011;6208;48.956;9.076;2022-12-20T17:46:23;7.43;;;6.63;;
12290;SDS011;6208;48.956;9.076;2022-12-20T17:49:07;9.70;;;6.97;;
12290;SDS011;6208;48.956;9.076;2022-12-20T17:51:52;12.27;;;7.37;;
12290;SDS011;6208;48.956;9.076;2022-12-20T17:54:38;11.13;;;7.10;;
12290;SDS011;6208;48.956;9.076;2022-12-20T17:57:23;7.30;;;6.60;;
12290;SDS011;6208;48.956;9.076;2022-12-20T18:00:08;7.90;;;6.60;;
12290;SDS011;6208;48.956;9.076;2022-12-20T18:02:59;8.17;;;7.20;;
12290;SDS011;6208;48.956;9.076;2022-12-20T18:05:43;7.73;;;6.70;;
12290;SDS011;6208;48.956;9.076;2022-12-20T18:08:27;14.30;;;9.43;;
12290;SDS011;6208;48.956;9.076;2022-12-20T18:11:11;9.23;;;8.33;;
12290;SDS011;6208;48.956;9.076;2022-12-20T18:13:55;8.63;;;7.17;;
12290;SDS011;6208;48.956;9.076;2022-12-20T18:16:40;8.40;;;7.50;;
12290;SDS011;6208;48.956;9.076;2022-12-20T18:19:25;9.43;;;7.53;;
12290;SDS011;6208;48.956;9.076;2022-12-20T18:22:09;7.20;;;6.50;;
12290;SDS011;6208;48.956;9.076;2022-12-20T18:24:54;8.67;;;7.33;;
12290;SDS011;6208;48.956;9.076;2022-12-20T18:27:39;11.63;;;6.80;;
12290;SDS011;6208;48.956;9.076;2022-12-20T18:30:24;8.00;;;6.80;;
12290;SDS011;6208;48.956;9.076;2022-12-20T18:33:09;7.83;;;6.87;;
12290;SDS011;6208;48.956;9.076;2022-12-20T18:35:58;7.93;;;6.90;;
12290;SDS011;6208;48.956;9.076;2022-12-20T18:38:47;7.43;;;6.60;;
12290;SDS011;6208;48.956;9.076;2022-12-20T18:41:33;13.63;;;10.57;;
12290;SDS011;6208;48.956;9.076;2022-12-20T18:44:17;10.57;;;7.93;;
12290;SDS011;6208;48.956;9.076;2022-12-20T18:47:01;12.63;;;7.33;;
12290;SDS011;6208;48.956;9.076;2022-12-20T18:49:46;8.40;;;7.17;;